Time;durP1;ratioP1;P1;durP2;ratioP2;P2;SDS_P1;SDS_P2;PMS_P1;PMS_P2;Temp;Humidity;BMP_temperature;BMP_pressure;BME280_temperature;BME280_humidity;BME280_pressure;Samples;Min_cycle;Max_cycle;Signal;HPM_P1;HPM_P2
2023/09/16 00:02:02;;;;;;;1.05;0.80;;;;;;;;;;4988039;28;20022;-58
2023/09/16 00:04:29;;;;;;;1.52;1.10;;;;;;;;;;4991942;28;20049;-58
2023/09/16 00:06:56;;;;;;;2.05;1.13;;;;;;;;;;4993219;28;20034;-58
2023/09/16 00:09:24;;;;;;;6.43;1.77;;;;;;;;;;4992833;28;20362;-58
2023/09/16 00:11:50;;;;;;;2.42;1.45;;;;;;;;;;4993151;28;20058;-58
2023/09/16 00:14:18;;;;;;;1.40;0.90;;;;;;;;;;4992652;28;20030;-59
2023/09/16 00:16:46;;;;;;;1.37;0.90;;;;;;;;;;4988682;28;20062;-58
2023/09/16 00:19:12;;;;;;;5.10;1.47;;;;;;;;;;4987950;28;20030;-59
2023/09/16 00:21:41;;;;;;;1.43;0.93;;;;;;;;;;4987637;28;20037;-58
2023/09/16 00:24:10;;;;;;;1.33;0.90;;;;;;;;;;4987594;28;20413;-58
2023/09/16 00:26:36;;;;;;;10.83;1.50;;;;;;;;;;4991155;28;20044;-58
2023/09/16 00:29:03;;;;;;;2.03;1.07;;;;;;;;;;4992464;28;20077;-58
2023/09/16 00:31:30;;;;;;;1.57;0.90;;;;;;;;;;4992534;28;20038;-58
2023/09/16 00:33:57;;;;;;;2.30;1.57;;;;;;;;;;4992377;28;20025;-58
2023/09/16 00:36:23;;;;;;;2.03;1.03;;;;;;;;;;4992595;28;20482;-58
2023/09/16 00:38:50;;;;;;;3.03;1.47;;;;;;;;;;4988991;28;20034;-59
2023/09/16 00:41:17;;;;;;;4.73;1.50;;;;;;;;;;4986304;28;20059;-59
2023/09/16 00:43:43;;;;;;;3.20;1.57;;;;;;;;;;4987601;28;20034;-58
2023/09/16 00:46:10;;;;;;;8.20;1.67;;;;;;;;;;4987251;28;20030;-59
2023/09/16 00:48:37;;;;;;;12.70;1.50;;;;;;;;;;4990581;28;20717;-59
2023/09/16 00:51:04;;;;;;;2.37;1.10;;;;;;;;;;4994980;28;20026;-58
2023/09/16 00:53:30;;;;;;;2.03;1.33;;;;;;;;;;4994953;28;20027;-58
2023/09/16 00:55:57;;;;;;;2.30;1.63;;;;;;;;;;4995978;28;20474;-59
2023/09/16 00:58:24;;;;;;;3.87;2.30;;;;;;;;;;4996029;28;20026;-58
2023/09/16 01:00:51;;;;;;;4.60;2.60;;;;;;;;;;4993363;28;20378;-58
2023/09/16 01:03:17;;;;;;;5.83;1.70;;;;;;;;;;4991322;28;20157;-58
2023/09/16 01:05:47;;;;;;;1.90;1.07;;;;;;;;;;4991366;28;20594;-58
2023/09/16 01:08:15;;;;;;;2.40;1.63;;;;;;;;;;4991042;28;20045;-58
2023/09/16 01:10:43;;;;;;;9.20;2.43;;;;;;;;;;4992283;28;20097;-58
2023/09/16 01:13:10;;;;;;;3.70;1.83;;;;;;;;;;4995802;28;20030;-58
2023/09/16 01:15:49;;;;;;;3.90;1.87;;;;;;;;;;4995691;28;20084;-58
2023/09/16 01:18:21;;;;;;;4.87;1.70;;;;;;;;;;4995826;28;20023;-58
2023/09/16 01:20:49;;;;;;;2.50;1.70;;;;;;;;;;4996155;28;20030;-58
2023/09/16 01:23:19;;;;;;;1.90;1.27;;;;;;;;;;4994076;28;20030;-59
2023/09/16 01:25:46;;;;;;;3.73;1.67;;;;;;;;;;4990578;28;20036;-58
2023/09/16 01:28:12;;;;;;;8.73;2.23;;;;;;;;;;4990828;28;20385;-58
2023/09/16 01:30:41;;;;;;;1.90;1.43;;;;;;;;;;4990663;28;20042;-58
2023/09/16 01:33:13;;;;;;;2.73;1.67;;;;;;;;;;4991296;28;20389;-58
2023/09/16 01:35:43;;;;;;;18.60;1.93;;;;;;;;;;4995367;28;20081;-58
2023/09/16 01:38:13;;;;;;;3.60;2.10;;;;;;;;;;4988512;28;20061;-59
2023/09/16 01:40:40;;;;;;;2.17;1.47;;;;;;;;;;4995772;28;20069;-58
2023/09/16 01:43:07;;;;;;;4.47;1.53;;;;;;;;;;4995747;28;20422;-59
2023/09/16 01:45:40;;;;;;;1.53;1.00;;;;;;;;;;4994426;28;20024;-58
2023/09/16 01:48:07;;;;;;;9.53;1.10;;;;;;;;;;4990415;28;20026;-58
2023/09/16 01:50:35;;;;;;;2.27;1.50;;;;;;;;;;4990325;28;20026;-59
2023/09/16 01:53:02;;;;;;;7.83;1.80;;;;;;;;;;4989768;28;20521;-58
2023/09/16 01:55:30;;;;;;;0.80;0.77;;;;;;;;;;4990394;28;20038;-59
2023/09/16 01:57:58;;;;;;;4.43;2.17;;;;;;;;;;4995496;28;20082;-58
2023/09/16 02:00:24;;;;;;;2.27;1.40;;;;;;;;;;4994472;28;20026;-58
2023/09/16 02:02:51;;;;;;;1.03;0.77;;;;;;;;;;4994457;28;20042;-58
2023/09/16 02:05:18;;;;;;;2.43;1.80;;;;;;;;;;4995273;28;20029;-58
2023/09/16 02:07:44;;;;;;;2.47;1.33;;;;;;;;;;4994908;28;20409;-58
2023/09/16 02:10:11;;;;;;;2.93;1.40;;;;;;;;;;4989772;28;20033;-58
2023/09/16 02:12:38;;;;;;;0.50;0.50;;;;;;;;;;4989887;28;20117;-58
2023/09/16 02:15:07;;;;;;;17.10;1.47;;;;;;;;;;4990076;28;20030;-58
2023/09/16 02:17:34;;;;;;;3.97;0.90;;;;;;;;;;4989918;28;20042;-58
2023/09/16 02:20:01;;;;;;;1.67;1.03;;;;;;;;;;4994390;28;20041;-58
2023/09/16 02:22:28;;;;;;;3.17;1.53;;;;;;;;;;4994473;28;20117;-58
2023/09/16 02:24:54;;;;;;;2.47;1.10;;;;;;;;;;4994941;28;20026;-58
2023/09/16 02:27:21;;;;;;;2.17;1.23;;;;;;;;;;4994829;28;20023;-58
2023/09/16 02:29:49;;;;;;;1.43;1.10;;;;;;;;;;4993986;28;20073;-58
2023/09/16 02:32:15;;;;;;;1.87;1.13;;;;;;;;;;4989753;28;20125;-58
2023/09/16 02:34:42;;;;;;;3.40;1.77;;;;;;;;;;4989894;28;20428;-58
2023/09/16 02:37:09;;;;;;;4.07;2.03;;;;;;;;;;4989406;28;20030;-58
2023/09/16 02:39:35;;;;;;;2.33;1.20;;;;;;;;;;4989752;28;20097;-57
2023/09/16 02:42:02;;;;;;;1.30;0.90;;;;;;;;;;4992495;28;20038;-58
2023/09/16 02:44:32;;;;;;;1.47;1.10;;;;;;;;;;4994669;28;20045;-58
2023/09/16 02:46:58;;;;;;;0.77;0.73;;;;;;;;;;4994551;28;20026;-58
2023/09/16 02:49:29;;;;;;;4.00;1.53;;;;;;;;;;4994048;28;20035;-58
2023/09/16 02:51:55;;;;;;;2.27;1.20;;;;;;;;;;4994089;28;20050;-57
2023/09/16 02:54:22;;;;;;;2.67;1.60;;;;;;;;;;5005934;28;20405;-58
2023/09/16 02:56:49;;;;;;;3.20;0.83;;;;;;;;;;4989259;28;20065;-58
2023/09/16 02:59:16;;;;;;;3.23;0.83;;;;;;;;;;4989154;28;20037;-58
2023/09/16 03:01:43;;;;;;;1.60;1.00;;;;;;;;;;4989034;28;20030;-58
2023/09/16 03:04:10;;;;;;;4.20;1.33;;;;;;;;;;4991524;28;20030;-59
2023/09/16 03:06:36;;;;;;;1.00;0.90;;;;;;;;;;4994126;28;20026;-58
2023/09/16 03:09:03;;;;;;;8.30;1.40;;;;;;;;;;4993256;28;20450;-58
2023/09/16 03:11:30;;;;;;;2.23;1.37;;;;;;;;;;4992805;28;20481;-57
2023/09/16 03:13:56;;;;;;;5.10;1.17;;;;;;;;;;4993941;28;20038;-58
2023/09/16 03:16:23;;;;;;;1.00;0.77;;;;;;;;;;4991337;28;20042;-58
2023/09/16 03:18:51;;;;;;;1.70;0.87;;;;;;;;;;4988904;28;20382;-57
2023/09/16 03:21:18;;;;;;;2.87;1.37;;;;;;;;;;4987694;28;20026;-57
2023/09/16 03:23:46;;;;;;;2.27;1.27;;;;;;;;;;4986056;28;20072;-58
2023/09/16 03:26:15;;;;;;;7.57;1.17;;;;;;;;;;4988765;28;20049;-57
2023/09/16 03:28:44;;;;;;;3.67;1.40;;;;;;;;;;4992237;28;20069;-58
2023/09/16 03:31:11;;;;;;;3.27;0.87;;;;;;;;;;4991695;28;20390;-58
2023/09/16 03:33:38;;;;;;;1.03;0.77;;;;;;;;;;4994188;28;20034;-57
2023/09/16 03:36:05;;;;;;;1.37;1.03;;;;;;;;;;4992262;28;20045;-58
2023/09/16 03:38:33;;;;;;;2.13;1.23;;;;;;;;;;4990988;28;20061;-57
2023/09/16 03:40:59;;;;;;;5.87;1.30;;;;;;;;;;4987229;28;20093;-58
2023/09/16 03:43:27;;;;;;;1.73;1.30;;;;;;;;;;4986758;28;20022;-58
2023/09/16 03:45:54;;;;;;;3.93;1.60;;;;;;;;;;4986423;28;20034;-58
2023/09/16 03:48:20;;;;;;;1.70;1.50;;;;;;;;;;4986029;28;20392;-57
2023/09/16 03:50:47;;;;;;;1.80;1.20;;;;;;;;;;4990699;28;20370;-57
2023/09/16 03:53:14;;;;;;;4.90;1.20;;;;;;;;;;4992121;28;20027;-57
2023/09/16 03:55:41;;;;;;;2.03;1.20;;;;;;;;;;4992034;28;20038;-57
2023/09/16 03:58:08;;;;;;;1.63;1.10;;;;;;;;;;4992292;28;20377;-58
2023/09/16 04:00:35;;;;;;;1.83;1.03;;;;;;;;;;4991764;28;20109;-57
2023/09/16 04:03:01;;;;;;;2.43;1.40;;;;;;;;;;4979686;28;20019;-58
2023/09/16 04:05:28;;;;;;;1.33;1.03;;;;;;;;;;4985116;28;20033;-59
2023/09/16 04:07:55;;;;;;;1.70;0.90;;;;;;;;;;4985009;28;20057;-58
2023/09/16 04:10:22;;;;;;;3.07;1.43;;;;;;;;;;4985591;28;20045;-57
2023/09/16 04:12:48;;;;;;;4.80;1.40;;;;;;;;;;4989757;28;20027;-58
2023/09/16 04:15:15;;;;;;;1.37;1.10;;;;;;;;;;4989838;28;20027;-57
2023/09/16 04:17:42;;;;;;;1.40;0.70;;;;;;;;;;4990164;28;20104;-58
2023/09/16 04:20:09;;;;;;;2.27;1.37;;;;;;;;;;4990701;28;20030;-57
2023/09/16 04:22:36;;;;;;;5.97;1.50;;;;;;;;;;4988998;28;20034;-62
2023/09/16 04:25:03;;;;;;;4.07;1.57;;;;;;;;;;4986216;28;20022;-58
2023/09/16 04:27:30;;;;;;;16.43;1.43;;;;;;;;;;4986120;28;20033;-59
2023/09/16 04:29:57;;;;;;;2.03;1.47;;;;;;;;;;4986747;28;20054;-58
2023/09/16 04:32:23;;;;;;;3.97;2.10;;;;;;;;;;4985727;28;20113;-59
2023/09/16 04:34:50;;;;;;;2.77;1.53;;;;;;;;;;4988262;28;20038;-58
2023/09/16 04:37:17;;;;;;;5.07;1.30;;;;;;;;;;4989368;28;20113;-58
2023/09/16 04:39:44;;;;;;;2.03;1.30;;;;;;;;;;4989813;28;20045;-58
2023/09/16 04:42:10;;;;;;;1.73;1.30;;;;;;;;;;4989505;28;20681;-59
2023/09/16 04:44:38;;;;;;;21.17;1.70;;;;;;;;;;4989932;28;20026;-57
2023/09/16 04:47:10;;;;;;;2.63;1.73;;;;;;;;;;4986361;28;20038;-60
2023/09/16 04:49:36;;;;;;;18.73;1.83;;;;;;;;;;4965863;28;20035;-57
2023/09/16 04:52:06;;;;;;;1.70;1.20;;;;;;;;;;4967418;28;20023;-60
2023/09/16 04:54:36;;;;;;;2.93;1.63;;;;;;;;;;4984208;28;20026;-58
2023/09/16 04:57:03;;;;;;;8.00;1.70;;;;;;;;;;4988131;28;20445;-59
2023/09/16 04:59:32;;;;;;;3.67;1.33;;;;;;;;;;4983824;28;20080;-58
2023/09/16 05:01:59;;;;;;;4.57;1.60;;;;;;;;;;4991964;28;20034;-59
2023/09/16 05:04:26;;;;;;;3.40;1.97;;;;;;;;;;4992036;28;20023;-58
2023/09/16 05:06:53;;;;;;;3.63;1.57;;;;;;;;;;4992227;28;20026;-58
2023/09/16 05:09:23;;;;;;;23.80;1.93;;;;;;;;;;4989222;28;20038;-58
2023/09/16 05:11:50;;;;;;;2.03;1.27;;;;;;;;;;4986815;28;20102;-58
2023/09/16 05:14:17;;;;;;;0.83;0.73;;;;;;;;;;4987222;28;20038;-57
2023/09/16 05:16:45;;;;;;;3.63;1.70;;;;;;;;;;4986913;28;20077;-58
2023/09/16 05:19:12;;;;;;;2.60;1.73;;;;;;;;;;4988663;28;20057;-58
2023/09/16 05:21:38;;;;;;;2.00;1.20;;;;;;;;;;4990257;28;20121;-57
2023/09/16 05:24:05;;;;;;;2.13;1.23;;;;;;;;;;4990934;28;20022;-58
2023/09/16 05:26:45;;;;;;;7.23;2.30;;;;;;;;;;4991066;28;20030;-58
2023/09/16 05:29:18;;;;;;;4.37;2.30;;;;;;;;;;4991130;28;20031;-57
2023/09/16 05:31:46;;;;;;;9.63;1.77;;;;;;;;;;4987710;28;20041;-58
2023/09/16 05:34:13;;;;;;;2.70;1.43;;;;;;;;;;4985557;28;20074;-58
2023/09/16 05:36:49;;;;;;;4.83;2.17;;;;;;;;;;4988751;28;20045;-58
2023/09/16 05:39:19;;;;;;;8.73;1.53;;;;;;;;;;4989787;28;20022;-58
2023/09/16 05:41:49;;;;;;;3.03;1.50;;;;;;;;;;4990931;28;20014;-58
2023/09/16 05:44:21;;;;;;;6.90;1.33;;;;;;;;;;4994139;28;20030;-58
2023/09/16 05:46:48;;;;;;;2.37;1.60;;;;;;;;;;4993476;28;20033;-58
2023/09/16 05:49:15;;;;;;;1.50;1.07;;;;;;;;;;4994512;28;20031;-58
2023/09/16 05:51:42;;;;;;;3.10;1.87;;;;;;;;;;4994488;28;20109;-59
2023/09/16 05:54:09;;;;;;;5.47;2.03;;;;;;;;;;4993276;28;20033;-58
2023/09/16 05:56:42;;;;;;;0.90;0.80;;;;;;;;;;4990277;28;20070;-58
2023/09/16 05:59:09;;;;;;;3.77;1.70;;;;;;;;;;4989958;28;20031;-58
2023/09/16 06:01:36;;;;;;;2.23;1.33;;;;;;;;;;4990404;28;20022;-59
2023/09/16 06:04:03;;;;;;;2.27;1.63;;;;;;;;;;5015846;28;20109;-57
2023/09/16 06:06:30;;;;;;;3.43;1.50;;;;;;;;;;4999356;28;20081;-57
2023/09/16 06:08:57;;;;;;;8.73;1.67;;;;;;;;;;4995051;28;20084;-57
2023/09/16 06:11:28;;;;;;;3.00;1.70;;;;;;;;;;4995256;28;20092;-58
2023/09/16 06:13:56;;;;;;;3.10;1.47;;;;;;;;;;4982882;28;20038;-59
2023/09/16 06:16:23;;;;;;;3.07;1.43;;;;;;;;;;4991719;28;20088;-59
2023/09/16 06:18:50;;;;;;;1.93;1.17;;;;;;;;;;4989950;28;20018;-57
2023/09/16 06:21:20;;;;;;;3.30;1.73;;;;;;;;;;4990035;28;20067;-58
2023/09/16 06:23:48;;;;;;;3.73;1.90;;;;;;;;;;4989897;28;20027;-58
2023/09/16 06:26:17;;;;;;;9.63;1.07;;;;;;;;;;4989912;28;20038;-58
2023/09/16 06:28:44;;;;;;;2.50;1.33;;;;;;;;;;4994698;28;20084;-57
2023/09/16 06:31:11;;;;;;;10.30;2.57;;;;;;;;;;4993042;28;20030;-58
2023/09/16 06:33:38;;;;;;;2.77;1.07;;;;;;;;;;4992968;28;20497;-57
2023/09/16 06:36:05;;;;;;;2.17;1.10;;;;;;;;;;4992470;28;20041;-58
2023/09/16 06:38:32;;;;;;;1.13;0.93;;;;;;;;;;4992231;28;20372;-57
2023/09/16 06:40:59;;;;;;;4.40;1.67;;;;;;;;;;4988392;28;20522;-57
2023/09/16 06:43:26;;;;;;;2.03;1.57;;;;;;;;;;4988087;28;20541;-57
2023/09/16 06:45:52;;;;;;;2.23;1.23;;;;;;;;;;4987796;28;20025;-57
2023/09/16 06:48:19;;;;;;;2.30;1.43;;;;;;;;;;4988832;28;20030;-58
2023/09/16 06:50:46;;;;;;;1.70;1.37;;;;;;;;;;4994134;28;20092;-58
2023/09/16 06:53:13;;;;;;;4.33;1.77;;;;;;;;;;4994170;28;20026;-57
2023/09/16 06:55:40;;;;;;;1.77;1.20;;;;;;;;;;4994318;28;20030;-57
2023/09/16 06:58:07;;;;;;;2.37;1.77;;;;;;;;;;4994249;28;20030;-57
2023/09/16 07:00:34;;;;;;;2.73;1.60;;;;;;;;;;4993992;28;20374;-57
2023/09/16 07:03:01;;;;;;;1.83;1.23;;;;;;;;;;4989454;28;20073;-59
2023/09/16 07:05:32;;;;;;;4.77;1.33;;;;;;;;;;4988543;28;20532;-57
2023/09/16 07:07:59;;;;;;;0.87;0.80;;;;;;;;;;4988873;28;20038;-57
2023/09/16 07:10:26;;;;;;;2.17;1.70;;;;;;;;;;4989371;28;20033;-57
2023/09/16 07:12:52;;;;;;;2.23;1.50;;;;;;;;;;4992866;28;20129;-58
2023/09/16 07:15:20;;;;;;;3.03;1.53;;;;;;;;;;4992594;28;20057;-58
2023/09/16 07:17:47;;;;;;;10.67;1.00;;;;;;;;;;4989941;28;20054;-58
2023/09/16 07:20:14;;;;;;;14.17;2.03;;;;;;;;;;4991393;28;20097;-58
2023/09/16 07:22:40;;;;;;;2.47;1.60;;;;;;;;;;4991095;28;20035;-57
2023/09/16 07:25:07;;;;;;;1.80;1.20;;;;;;;;;;4987260;28;20646;-57
2023/09/16 07:27:34;;;;;;;2.33;1.50;;;;;;;;;;4985219;28;20030;-58
2023/09/16 07:30:01;;;;;;;2.57;1.70;;;;;;;;;;4984941;28;20034;-58
2023/09/16 07:32:28;;;;;;;2.53;1.23;;;;;;;;;;4986365;28;20065;-58
2023/09/16 07:34:55;;;;;;;2.07;1.50;;;;;;;;;;4989357;28;20097;-58
2023/09/16 07:37:22;;;;;;;2.20;1.37;;;;;;;;;;4991919;28;20046;-58
2023/09/16 07:39:50;;;;;;;3.37;2.23;;;;;;;;;;4991737;28;20019;-58
2023/09/16 07:42:17;;;;;;;1.83;1.47;;;;;;;;;;4991230;28;20096;-58
2023/09/16 07:44:44;;;;;;;2.77;1.23;;;;;;;;;;4993449;28;20026;-58
2023/09/16 07:47:10;;;;;;;2.27;1.63;;;;;;;;;;4990638;28;20049;-57
2023/09/16 07:49:37;;;;;;;2.40;1.80;;;;;;;;;;4988309;28;20033;-57
2023/09/16 07:52:04;;;;;;;1.47;0.93;;;;;;;;;;4987643;28;20037;-57
2023/09/16 07:54:31;;;;;;;1.97;1.33;;;;;;;;;;4987946;28;20504;-58
2023/09/16 07:56:57;;;;;;;1.87;1.50;;;;;;;;;;4989863;28;20492;-58
2023/09/16 07:59:24;;;;;;;2.07;1.27;;;;;;;;;;4992599;28;20113;-58
2023/09/16 08:01:51;;;;;;;3.27;2.07;;;;;;;;;;4992765;28;20023;-57
2023/09/16 08:04:18;;;;;;;4.00;2.47;;;;;;;;;;4992885;28;20026;-57
2023/09/16 08:06:44;;;;;;;2.40;1.60;;;;;;;;;;4992482;28;20034;-57
2023/09/16 08:09:11;;;;;;;1.63;1.23;;;;;;;;;;4990460;28;20028;-57
2023/09/16 08:11:37;;;;;;;3.37;1.77;;;;;;;;;;4986386;28;20039;-57
2023/09/16 08:14:04;;;;;;;2.97;1.57;;;;;;;;;;4986520;28;20062;-58
2023/09/16 08:16:31;;;;;;;3.27;2.23;;;;;;;;;;4986092;28;20030;-57
2023/09/16 08:18:57;;;;;;;4.67;2.20;;;;;;;;;;4987320;28;20023;-58
2023/09/16 08:21:24;;;;;;;3.77;2.17;;;;;;;;;;4990790;28;20049;-57
2023/09/16 08:23:51;;;;;;;1.97;1.47;;;;;;;;;;4991292;28;20377;-58
2023/09/16 08:26:17;;;;;;;1.77;1.40;;;;;;;;;;4990944;28;20026;-57
2023/09/16 08:28:44;;;;;;;1.97;1.20;;;;;;;;;;4991914;28;20030;-58
2023/09/16 08:31:11;;;;;;;3.23;2.07;;;;;;;;;;4991651;28;20557;-58
2023/09/16 08:33:37;;;;;;;6.47;2.27;;;;;;;;;;4987753;28;20385;-58
2023/09/16 08:36:04;;;;;;;2.90;2.13;;;;;;;;;;4987425;28;20173;-57
2023/09/16 08:38:31;;;;;;;3.63;1.80;;;;;;;;;;4987331;28;20042;-57
2023/09/16 08:41:17;;;;;;;2.57;1.73;;;;;;;;;;4987041;28;20359;-58
2023/09/16 08:43:46;;;;;;;2.63;2.03;;;;;;;;;;4992319;28;20381;-58
2023/09/16 08:46:19;;;;;;;2.03;1.60;;;;;;;;;;4992558;28;20057;-57
2023/09/16 08:48:47;;;;;;;9.20;2.00;;;;;;;;;;4992425;28;20042;-57
2023/09/16 08:51:16;;;;;;;3.27;1.80;;;;;;;;;;4991992;28;20512;-57
2023/09/16 08:53:43;;;;;;;23.70;2.43;;;;;;;;;;4990786;28;20037;-57
2023/09/16 08:56:10;;;;;;;2.07;1.57;;;;;;;;;;4985939;28;20070;-58
2023/09/16 08:58:39;;;;;;;8.73;2.97;;;;;;;;;;4986010;28;20485;-57
2023/09/16 09:01:05;;;;;;;2.53;2.03;;;;;;;;;;4985997;28;20027;-57
2023/09/16 09:03:33;;;;;;;1.53;1.27;;;;;;;;;;4986016;28;20046;-57
2023/09/16 09:05:59;;;;;;;2.77;2.07;;;;;;;;;;4990289;28;20026;-57
2023/09/16 09:08:26;;;;;;;3.33;1.70;;;;;;;;;;4990112;28;20023;-57
2023/09/16 09:10:53;;;;;;;2.90;1.90;;;;;;;;;;4992672;28;20038;-57
2023/09/16 09:13:20;;;;;;;1.90;1.37;;;;;;;;;;4995570;28;20522;-58
2023/09/16 09:15:50;;;;;;;2.07;1.47;;;;;;;;;;4995822;28;20028;-57
2023/09/16 09:18:18;;;;;;;3.00;1.73;;;;;;;;;;4990563;28;20034;-57
2023/09/16 09:20:45;;;;;;;2.20;1.53;;;;;;;;;;4990853;28;20540;-57
2023/09/16 09:23:11;;;;;;;2.27;1.57;;;;;;;;;;4991063;28;20049;-58
2023/09/16 09:25:41;;;;;;;2.33;1.73;;;;;;;;;;4990761;28;20019;-58
2023/09/16 09:28:08;;;;;;;1.80;1.47;;;;;;;;;;4995546;28;20030;-58
2023/09/16 09:30:34;;;;;;;3.60;1.70;;;;;;;;;;4976440;28;20042;-57
2023/09/16 09:33:01;;;;;;;2.37;1.77;;;;;;;;;;4976714;28;20022;-57
2023/09/16 09:35:29;;;;;;;5.53;2.07;;;;;;;;;;4976024;28;20486;-57
2023/09/16 09:37:57;;;;;;;2.73;1.90;;;;;;;;;;4976361;28;20054;-57
2023/09/16 09:40:24;;;;;;;3.07;1.90;;;;;;;;;;4971413;28;20041;-58
2023/09/16 09:42:57;;;;;;;3.17;2.20;;;;;;;;;;4971121;28;20054;-57
2023/09/16 09:45:24;;;;;;;1.80;1.40;;;;;;;;;;4971196;28;20027;-57
2023/09/16 09:47:52;;;;;;;1.97;1.57;;;;;;;;;;4970992;28;20027;-57
2023/09/16 09:50:20;;;;;;;3.53;1.87;;;;;;;;;;4975436;28;20015;-57
2023/09/16 09:52:47;;;;;;;2.30;1.70;;;;;;;;;;4980114;28;20026;-57
2023/09/16 09:55:17;;;;;;;4.33;1.60;;;;;;;;;;4995266;28;20481;-57
2023/09/16 09:57:47;;;;;;;2.43;1.70;;;;;;;;;;4995482;28;20038;-57
2023/09/16 10:00:17;;;;;;;2.20;1.47;;;;;;;;;;4995476;28;20101;-57
2023/09/16 10:02:44;;;;;;;1.73;1.30;;;;;;;;;;4989594;28;20019;-57
2023/09/16 10:05:15;;;;;;;2.97;1.77;;;;;;;;;;4988341;28;20030;-57
2023/09/16 10:07:45;;;;;;;2.80;1.83;;;;;;;;;;4988520;28;20029;-58
2023/09/16 10:10:20;;;;;;;1.10;1.00;;;;;;;;;;4988658;28;20382;-57
2023/09/16 10:12:51;;;;;;;2.22;1.70;;;;;;;;;;4992493;28;20030;-57
2023/09/16 10:15:18;;;;;;;3.30;1.83;;;;;;;;;;4993507;28;20038;-57
2023/09/16 10:17:45;;;;;;;5.47;1.87;;;;;;;;;;4993141;28;20121;-57
2023/09/16 10:20:13;;;;;;;3.00;1.47;;;;;;;;;;4993970;28;20026;-57
2023/09/16 10:22:40;;;;;;;4.17;2.13;;;;;;;;;;4994616;28;20436;-57
2023/09/16 10:25:08;;;;;;;2.27;1.67;;;;;;;;;;4989851;28;20084;-57
2023/09/16 10:27:40;;;;;;;3.20;1.20;;;;;;;;;;4989619;28;20529;-57
2023/09/16 10:30:07;;;;;;;2.70;1.73;;;;;;;;;;4989621;28;20077;-57
2023/09/16 10:32:35;;;;;;;1.67;1.20;;;;;;;;;;4989713;28;20490;-57
2023/09/16 10:35:03;;;;;;;2.40;1.73;;;;;;;;;;4993233;28;20045;-57
2023/09/16 10:37:30;;;;;;;1.90;1.37;;;;;;;;;;4994580;28;20042;-57
2023/09/16 10:39:59;;;;;;;3.50;1.60;;;;;;;;;;4993221;28;20381;-57
2023/09/16 10:42:26;;;;;;;4.37;1.90;;;;;;;;;;4992758;28;20035;-57
2023/09/16 10:44:55;;;;;;;2.67;1.60;;;;;;;;;;4992201;28;20022;-57
2023/09/16 10:47:22;;;;;;;1.87;1.43;;;;;;;;;;4988959;28;20030;-57
2023/09/16 10:49:49;;;;;;;3.23;1.90;;;;;;;;;;4988076;28;20026;-57
2023/09/16 10:52:18;;;;;;;1.77;1.30;;;;;;;;;;4987945;28;20061;-58
2023/09/16 10:55:05;;;;;;;4.43;1.90;;;;;;;;;;4986444;28;20026;-57
2023/09/16 10:57:35;;;;;;;1.70;1.33;;;;;;;;;;4970409;28;20132;-58
2023/09/16 11:00:03;;;;;;;1.43;1.20;;;;;;;;;;4994501;28;20120;-57
2023/09/16 11:02:47;;;;;;;4.03;1.50;;;;;;;;;;4994012;28;20038;-58
2023/09/16 11:05:14;;;;;;;1.83;1.40;;;;;;;;;;4993861;28;20474;-57
2023/09/16 11:07:40;;;;;;;2.27;1.67;;;;;;;;;;4993663;28;20045;-57
2023/09/16 11:10:08;;;;;;;4.10;1.83;;;;;;;;;;4988932;28;20038;-57
2023/09/16 11:12:35;;;;;;;3.17;1.67;;;;;;;;;;4989238;28;20030;-57
2023/09/16 11:15:09;;;;;;;3.43;1.50;;;;;;;;;;4988948;28;20022;-57
2023/09/16 11:17:39;;;;;;;3.77;2.27;;;;;;;;;;4988561;28;20517;-58
2023/09/16 11:20:21;;;;;;;2.27;1.43;;;;;;;;;;4973499;28;20037;-57
2023/09/16 11:22:51;;;;;;;2.03;1.60;;;;;;;;;;4974426;28;20030;-57
2023/09/16 11:25:18;;;;;;;2.27;1.67;;;;;;;;;;4974385;28;20097;-57
2023/09/16 11:27:46;;;;;;;3.33;1.47;;;;;;;;;;4974437;28;20023;-58
2023/09/16 11:30:16;;;;;;;1.40;1.23;;;;;;;;;;4979222;28;20019;-57
2023/09/16 11:32:58;;;;;;;2.60;1.37;;;;;;;;;;4987729;28;20077;-57
2023/09/16 11:35:28;;;;;;;1.87;1.23;;;;;;;;;;4987980;28;20030;-57
2023/09/16 11:37:57;;;;;;;2.10;1.60;;;;;;;;;;4988328;28;20050;-58
2023/09/16 11:40:27;;;;;;;3.27;1.90;;;;;;;;;;4988591;28;20032;-57
2023/09/16 11:42:55;;;;;;;2.77;2.00;;;;;;;;;;4992873;28;20092;-58
2023/09/16 11:45:22;;;;;;;2.90;1.90;;;;;;;;;;4993021;28;20034;-57
2023/09/16 11:47:49;;;;;;;2.37;1.43;;;;;;;;;;4993409;28;20093;-57
2023/09/16 11:50:26;;;;;;;2.60;1.80;;;;;;;;;;4992869;28;20041;-57
2023/09/16 11:52:53;;;;;;;2.13;1.37;;;;;;;;;;4992702;28;20555;-57
2023/09/16 11:55:20;;;;;;;1.90;1.50;;;;;;;;;;4987851;28;20101;-58
2023/09/16 11:57:48;;;;;;;2.60;1.83;;;;;;;;;;4988176;28;20030;-57
2023/09/16 12:00:16;;;;;;;2.30;1.77;;;;;;;;;;4988124;28;20029;-57
2023/09/16 12:02:42;;;;;;;4.77;2.37;;;;;;;;;;4987954;28;20524;-57
2023/09/16 12:05:12;;;;;;;3.50;2.47;;;;;;;;;;4992418;28;20054;-57
2023/09/16 12:07:39;;;;;;;2.50;1.73;;;;;;;;;;4992439;28;20061;-57
2023/09/16 12:10:06;;;;;;;3.23;2.20;;;;;;;;;;4992680;28;20033;-57
2023/09/16 12:12:33;;;;;;;1.87;1.40;;;;;;;;;;4993053;28;20023;-57
2023/09/16 12:15:01;;;;;;;2.40;1.87;;;;;;;;;;4992981;28;20030;-57
2023/09/16 12:17:28;;;;;;;2.03;1.63;;;;;;;;;;4987913;28;20042;-57
2023/09/16 12:19:56;;;;;;;3.17;1.97;;;;;;;;;;4987314;28;20030;-57
2023/09/16 12:22:24;;;;;;;2.23;1.60;;;;;;;;;;4987307;28;20049;-57
2023/09/16 12:24:56;;;;;;;2.83;1.80;;;;;;;;;;4987805;28;20026;-57
2023/09/16 12:27:25;;;;;;;3.63;2.27;;;;;;;;;;4991993;28;20041;-57
2023/09/16 12:29:51;;;;;;;2.73;2.20;;;;;;;;;;4992666;28;20035;-57
2023/09/16 12:32:21;;;;;;;4.90;2.17;;;;;;;;;;4992382;28;20029;-57
2023/09/16 12:35:03;;;;;;;4.70;1.67;;;;;;;;;;4992585;28;20387;-57
2023/09/16 12:37:30;;;;;;;5.47;2.63;;;;;;;;;;4992441;28;20037;-57
2023/09/16 12:39:56;;;;;;;2.40;1.67;;;;;;;;;;4987627;28;20027;-57
2023/09/16 12:42:23;;;;;;;3.23;1.90;;;;;;;;;;4987318;28;20044;-57
2023/09/16 12:44:51;;;;;;;3.83;2.10;;;;;;;;;;4987165;28;20036;-57
2023/09/16 12:47:19;;;;;;;3.53;2.33;;;;;;;;;;4987514;28;20109;-58
2023/09/16 12:49:46;;;;;;;4.67;2.43;;;;;;;;;;4991903;28;20381;-57
2023/09/16 12:52:15;;;;;;;3.40;2.10;;;;;;;;;;4991999;28;20422;-57
2023/09/16 12:54:42;;;;;;;2.80;2.00;;;;;;;;;;4992390;28;20034;-57
2023/09/16 12:57:11;;;;;;;2.77;1.87;;;;;;;;;;4992495;28;20061;-57
2023/09/16 12:59:39;;;;;;;5.53;2.47;;;;;;;;;;4992297;28;20038;-58
2023/09/16 13:02:06;;;;;;;6.63;2.20;;;;;;;;;;4986369;28;20405;-57
2023/09/16 13:04:32;;;;;;;4.00;2.50;;;;;;;;;;4985470;28;20536;-57
2023/09/16 13:06:59;;;;;;;3.13;2.40;;;;;;;;;;4985793;28;20027;-57
2023/09/16 13:09:30;;;;;;;7.57;2.73;;;;;;;;;;4984626;28;20042;-57
2023/09/16 13:11:58;;;;;;;3.20;2.47;;;;;;;;;;4989448;28;20035;-57
2023/09/16 13:14:26;;;;;;;3.93;2.03;;;;;;;;;;4990697;28;20030;-57
2023/09/16 13:16:52;;;;;;;3.23;2.43;;;;;;;;;;4990533;28;20040;-57
2023/09/16 13:19:22;;;;;;;2.30;1.87;;;;;;;;;;4990527;28;20066;-57
2023/09/16 13:21:49;;;;;;;3.23;2.40;;;;;;;;;;4992288;28;20026;-57
2023/09/16 13:24:15;;;;;;;2.63;1.97;;;;;;;;;;4988038;28;20037;-57
2023/09/16 13:26:55;;;;;;;2.53;1.90;;;;;;;;;;4987149;28;20026;-57
2023/09/16 13:29:22;;;;;;;2.60;1.80;;;;;;;;;;4987103;28;20065;-57
2023/09/16 13:32:02;;;;;;;2.60;1.83;;;;;;;;;;4986861;28;20081;-58
2023/09/16 13:34:44;;;;;;;3.47;2.33;;;;;;;;;;4990908;28;20391;-57
2023/09/16 13:37:11;;;;;;;3.00;2.03;;;;;;;;;;4991761;28;20034;-57
2023/09/16 13:39:44;;;;;;;2.77;2.00;;;;;;;;;;4991762;28;20574;-57
2023/09/16 13:42:11;;;;;;;2.03;1.53;;;;;;;;;;4992058;28;20034;-57
2023/09/16 13:44:37;;;;;;;3.13;2.00;;;;;;;;;;4992088;28;20058;-57
2023/09/16 13:47:04;;;;;;;3.93;2.10;;;;;;;;;;4987020;28;20023;-57
2023/09/16 13:49:31;;;;;;;2.83;1.97;;;;;;;;;;4978668;28;20698;-58
2023/09/16 13:51:58;;;;;;;3.37;2.27;;;;;;;;;;4986146;28;20114;-58
2023/09/16 13:54:24;;;;;;;5.23;1.87;;;;;;;;;;4986708;28;20060;-57
2023/09/16 13:56:51;;;;;;;2.50;1.90;;;;;;;;;;4992277;28;20030;-58
2023/09/16 13:59:17;;;;;;;3.03;1.90;;;;;;;;;;4995527;28;20038;-59
2023/09/16 14:01:44;;;;;;;2.17;1.47;;;;;;;;;;4995015;28;20382;-57
2023/09/16 14:04:11;;;;;;;1.90;1.50;;;;;;;;;;4994965;28;20575;-58
2023/09/16 14:06:37;;;;;;;1.80;1.47;;;;;;;;;;4992260;28;20080;-58
2023/09/16 14:09:04;;;;;;;2.10;1.50;;;;;;;;;;4987558;28;20084;-59
2023/09/16 14:11:31;;;;;;;3.30;1.47;;;;;;;;;;4988749;28;20033;-58
2023/09/16 14:13:57;;;;;;;2.23;1.77;;;;;;;;;;4988870;28;20019;-58
2023/09/16 14:16:24;;;;;;;6.13;2.80;;;;;;;;;;4988425;28;20371;-58
2023/09/16 14:18:50;;;;;;;2.97;2.00;;;;;;;;;;4991163;28;20113;-58
2023/09/16 14:21:17;;;;;;;3.50;1.97;;;;;;;;;;4993504;28;20026;-58
2023/09/16 14:23:44;;;;;;;3.50;1.90;;;;;;;;;;4993332;28;20022;-59
2023/09/16 14:26:11;;;;;;;1.77;1.30;;;;;;;;;;4993518;28;20027;-58
2023/09/16 14:28:37;;;;;;;3.17;1.70;;;;;;;;;;4993177;28;20489;-57
2023/09/16 14:31:07;;;;;;;1.50;1.23;;;;;;;;;;4990723;28;20032;-57
2023/09/16 14:33:37;;;;;;;1.80;1.37;;;;;;;;;;4989749;28;20026;-58
2023/09/16 14:36:05;;;;;;;2.97;1.73;;;;;;;;;;4990295;28;20041;-57
2023/09/16 14:38:31;;;;;;;1.55;1.30;;;;;;;;;;4990248;28;20018;-57
2023/09/16 14:41:02;;;;;;;2.47;1.70;;;;;;;;;;4991382;28;20069;-58
2023/09/16 14:43:29;;;;;;;2.35;1.70;;;;;;;;;;4994396;28;20030;-57
2023/09/16 14:45:56;;;;;;;2.80;1.20;;;;;;;;;;4994062;28;20026;-58
2023/09/16 14:48:23;;;;;;;1.85;1.40;;;;;;;;;;4994669;28;20026;-58